createdAt,value
2018-05-15T00:01:31.554Z,21.60
2018-05-15T00:04:03.007Z,21.50
2018-05-15T00:06:36.746Z,21.40
2018-05-15T00:09:07.847Z,21.40
2018-05-15T00:11:40.009Z,21.40
2018-05-15T00:14:11.380Z,21.30
2018-05-15T00:16:42.948Z,21.40
2018-05-15T00:19:14.366Z,21.30
2018-05-15T00:21:45.782Z,21.30
2018-05-15T00:24:17.286Z,21.20
2018-05-15T00:26:49.447Z,21.10
2018-05-15T00:29:20.882Z,21.10
2018-05-15T00:31:52.310Z,21.10
2018-05-15T00:34:23.736Z,21.10
2018-05-15T00:36:55.194Z,21.00
2018-05-15T00:39:26.798Z,21.00
2018-05-15T00:41:58.269Z,21.00
2018-05-15T00:44:29.692Z,20.90
2018-05-15T00:47:01.847Z,20.90
2018-05-15T00:49:33.201Z,20.80
2018-05-15T00:52:04.590Z,20.80
2018-05-15T00:54:35.995Z,20.80
2018-05-15T00:57:07.490Z,20.80
2018-05-15T00:59:39.627Z,20.70
2018-05-15T01:02:11.021Z,20.60
2018-05-15T01:04:42.396Z,20.60
2018-05-15T01:07:13.809Z,20.60
2018-05-15T01:09:46.014Z,20.60
2018-05-15T01:12:17.411Z,20.50
2018-05-15T01:14:48.831Z,20.50
2018-05-15T01:17:20.372Z,20.50
2018-05-15T01:19:51.786Z,20.50
2018-05-15T01:22:23.934Z,20.40
2018-05-15T01:24:56.203Z,20.40
2018-05-15T01:27:27.579Z,20.40
2018-05-15T01:29:59.037Z,20.40
2018-05-15T01:32:30.406Z,20.30
2018-05-15T01:35:01.846Z,20.30
2018-05-15T01:37:33.523Z,20.30
2018-05-15T01:40:05.984Z,20.20
2018-05-15T01:42:37.389Z,20.20
2018-05-15T01:45:09.592Z,20.20
2018-05-15T01:47:41.763Z,20.10
2018-05-15T01:50:14.804Z,20.10
2018-05-15T01:52:46.339Z,20.10
2018-05-15T01:55:17.705Z,20.10
2018-05-15T01:57:49.228Z,20.00
2018-05-15T02:00:21.681Z,20.00
2018-05-15T02:02:53.549Z,20.00
2018-05-15T02:05:25.683Z,19.90
2018-05-15T02:07:57.113Z,19.90
2018-05-15T02:10:28.467Z,19.90
2018-05-15T02:13:00.026Z,19.90
2018-05-15T02:15:31.433Z,19.80
2018-05-15T02:18:03.703Z,19.80
2018-05-15T02:20:35.379Z,19.80
2018-05-15T02:23:06.735Z,19.80
2018-05-15T02:25:37.788Z,19.70
2018-05-15T02:28:09.181Z,19.70
2018-05-15T02:30:40.753Z,19.60
2018-05-15T02:33:12.907Z,19.60
2018-05-15T02:35:44.255Z,19.60
2018-05-15T02:38:16.531Z,19.50
2018-05-15T02:40:49.370Z,19.40
2018-05-15T02:43:20.769Z,19.40
2018-05-15T02:45:52.917Z,19.40
2018-05-15T02:48:24.546Z,19.40
2018-05-15T02:50:55.947Z,19.40
2018-05-15T02:53:28.260Z,19.30
2018-05-15T02:55:59.746Z,19.30
2018-05-15T02:58:31.176Z,19.30
2018-05-15T03:01:02.582Z,19.20
2018-05-15T03:03:34.701Z,19.10
2018-05-15T03:06:06.083Z,19.10
2018-05-15T03:08:37.655Z,19.10
2018-05-15T03:11:09.818Z,19.10
2018-05-15T03:13:41.971Z,19.00
2018-05-15T03:16:14.035Z,19.00
2018-05-15T03:18:45.915Z,19.00
2018-05-15T03:21:17.445Z,19.00
2018-05-15T03:23:49.284Z,18.90
2018-05-15T03:26:20.664Z,18.90
2018-05-15T03:28:52.056Z,18.90
2018-05-15T03:31:24.658Z,18.80
2018-05-15T03:33:56.148Z,18.80
2018-05-15T03:36:28.317Z,18.80
2018-05-15T03:38:59.677Z,18.70
2018-05-15T03:41:31.999Z,18.70
2018-05-15T03:44:03.431Z,18.70
2018-05-15T03:46:34.778Z,18.70
2018-05-15T03:49:06.154Z,18.70
2018-05-15T03:51:37.560Z,18.70
2018-05-15T03:54:09.681Z,18.60
2018-05-15T03:56:41.093Z,18.60
2018-05-15T03:59:12.465Z,18.60
2018-05-15T04:02:00.549Z,18.50
2018-05-15T04:04:48.710Z,18.60
2018-05-15T04:07:36.929Z,18.60
2018-05-15T04:10:08.091Z,18.50
2018-05-15T04:12:40.775Z,18.50
2018-05-15T04:15:12.195Z,18.40
2018-05-15T04:17:43.573Z,18.40
2018-05-15T04:20:14.936Z,18.40
2018-05-15T04:22:47.068Z,18.40
2018-05-15T04:25:18.475Z,18.40
2018-05-15T04:27:49.849Z,18.40
2018-05-15T04:30:21.393Z,18.40
2018-05-15T04:32:52.769Z,18.40
2018-05-15T04:35:26.121Z,18.30
2018-05-15T04:37:57.506Z,18.30
2018-05-15T04:40:28.858Z,18.30
2018-05-15T04:43:00.258Z,18.30
2018-05-15T04:45:32.369Z,18.30
2018-05-15T04:48:04.619Z,18.30
2018-05-15T04:50:35.962Z,18.30
2018-05-15T04:53:07.363Z,18.30
2018-05-15T04:55:38.783Z,18.30
2018-05-15T04:58:10.313Z,18.30
2018-05-15T05:00:41.743Z,18.30
2018-05-15T05:03:13.991Z,18.30
2018-05-15T05:05:45.776Z,18.30
2018-05-15T05:08:17.938Z,18.40
2018-05-15T05:10:50.120Z,18.40
2018-05-15T05:13:21.678Z,18.40
2018-05-15T05:15:53.079Z,18.40
2018-05-15T05:18:24.513Z,18.40
2018-05-15T05:20:55.895Z,18.40
2018-05-15T05:23:27.474Z,18.50
2018-05-15T05:25:59.657Z,18.50
2018-05-15T05:28:31.061Z,18.50
2018-05-15T05:31:03.452Z,18.50
2018-05-15T05:33:34.934Z,18.60
2018-05-15T05:36:06.375Z,18.60
2018-05-15T05:38:37.754Z,18.60
2018-05-15T05:41:09.246Z,18.60
2018-05-15T05:43:40.613Z,18.70
2018-05-15T05:46:12.110Z,18.70
2018-05-15T05:48:43.660Z,18.80
2018-05-15T05:51:16.413Z,18.90
2018-05-15T05:53:47.862Z,18.90
2018-05-15T05:56:20.047Z,19.00
2018-05-15T05:58:52.422Z,19.00
2018-05-15T06:01:23.942Z,19.00
2018-05-15T06:03:56.529Z,19.10
2018-05-15T06:06:28.027Z,19.10
2018-05-15T06:08:59.556Z,19.20
2018-05-15T06:11:31.753Z,19.30
2018-05-15T06:14:03.122Z,19.20
2018-05-15T06:16:34.534Z,19.30
2018-05-15T06:19:06.666Z,19.40
2018-05-15T06:21:38.150Z,19.40
2018-05-15T06:24:10.397Z,19.50
2018-05-15T06:26:41.868Z,19.60
2018-05-15T06:29:13.275Z,19.60
2018-05-15T06:31:44.665Z,19.70
2018-05-15T06:34:17.631Z,19.80
2018-05-15T06:36:49.275Z,19.70
2018-05-15T06:39:20.736Z,19.80
2018-05-15T06:41:52.186Z,19.90
2018-05-15T06:44:23.893Z,20.00
2018-05-15T06:46:56.058Z,20.10
2018-05-15T06:49:28.206Z,20.10
2018-05-15T06:52:00.424Z,20.20
2018-05-15T06:54:31.870Z,20.20
2018-05-15T06:57:03.431Z,20.30
2018-05-15T06:59:34.817Z,20.30
2018-05-15T07:02:06.459Z,20.40
2018-05-15T07:04:37.851Z,20.40
2018-05-15T07:07:10.106Z,20.60
2018-05-15T07:09:41.477Z,20.60
2018-05-15T07:12:13.165Z,20.70
2018-05-15T07:14:44.577Z,21.10
2018-05-15T07:17:16.726Z,20.80
2018-05-15T07:19:48.121Z,20.90
2018-05-15T07:22:19.711Z,20.90
2018-05-15T07:24:51.231Z,21.00
2018-05-15T07:27:22.457Z,21.10
2018-05-15T07:29:54.008Z,21.20
2018-05-15T07:32:25.450Z,21.20
2018-05-15T07:34:56.822Z,21.30
2018-05-15T07:37:29.081Z,21.50
2018-05-15T07:40:01.921Z,21.50
2018-05-15T07:42:33.368Z,21.50
2018-05-15T07:45:04.248Z,21.60
2018-05-15T07:47:35.849Z,21.70
2018-05-15T07:50:07.316Z,21.80
2018-05-15T07:52:39.714Z,21.80
2018-05-15T07:55:11.203Z,22.00
2018-05-15T07:57:42.692Z,22.00
2018-05-15T08:00:14.465Z,22.10
2018-05-15T08:02:46.150Z,22.10
2018-05-15T08:05:17.858Z,22.20
2018-05-15T08:07:49.247Z,22.30
2018-05-15T08:10:20.666Z,22.30
2018-05-15T08:12:52.234Z,22.40
2018-05-15T08:15:23.691Z,22.50
2018-05-15T08:17:55.788Z,22.60
2018-05-15T08:20:28.313Z,22.80
2018-05-15T08:23:00.081Z,22.80
2018-05-15T08:25:33.440Z,23.00
2018-05-15T08:28:05.613Z,22.90
2018-05-15T08:30:37.502Z,23.00
2018-05-15T08:33:08.958Z,23.10
2018-05-15T08:35:40.509Z,23.20
2018-05-15T08:38:11.901Z,23.30
2018-05-15T08:40:43.529Z,23.40
2018-05-15T08:43:15.204Z,23.50
2018-05-15T08:45:46.726Z,23.50
2018-05-15T08:48:18.296Z,23.60
2018-05-15T08:50:50.128Z,23.60
2018-05-15T08:53:22.281Z,23.70
2018-05-15T08:55:53.605Z,23.80
2018-05-15T08:58:25.333Z,23.90
2018-05-15T09:00:57.233Z,23.90
2018-05-15T09:03:29.839Z,24.00
2018-05-15T09:06:01.366Z,24.00
2018-05-15T09:08:33.549Z,24.20
2018-05-15T09:11:04.972Z,24.20
2018-05-15T09:13:36.468Z,24.30
2018-05-15T09:16:08.265Z,24.40
2018-05-15T09:18:39.743Z,24.50
2018-05-15T09:21:11.559Z,24.60
2018-05-15T09:23:43.148Z,24.70
2018-05-15T09:26:14.746Z,24.80
2018-05-15T09:28:46.982Z,25.00
2018-05-15T09:31:18.434Z,25.00
2018-05-15T09:33:50.119Z,25.10
2018-05-15T09:36:22.337Z,25.30
2018-05-15T09:38:54.394Z,25.50
2018-05-15T09:41:26.148Z,25.50
2018-05-15T09:43:56.846Z,25.60
2018-05-15T09:46:28.260Z,25.70
2018-05-15T09:49:00.485Z,25.90
2018-05-15T09:51:31.889Z,25.90
2018-05-15T09:54:03.389Z,26.00
2018-05-15T09:56:35.862Z,26.10
2018-05-15T09:59:07.307Z,26.30
2018-05-15T10:01:38.687Z,26.40
2018-05-15T10:04:10.156Z,26.50
2018-05-15T10:06:41.600Z,26.70
2018-05-15T10:09:12.989Z,26.80
2018-05-15T10:11:44.493Z,27.00
2018-05-15T10:14:15.874Z,27.20
2018-05-15T10:16:47.496Z,27.50
2018-05-15T10:19:18.899Z,27.40
2018-05-15T10:21:50.959Z,28.00
2018-05-15T10:24:22.363Z,28.40
2018-05-15T10:26:54.616Z,28.60
2018-05-15T10:29:26.594Z,28.90
2018-05-15T10:31:58.554Z,29.30
2018-05-15T10:34:30.633Z,29.70
2018-05-15T10:37:03.415Z,30.30
2018-05-15T10:39:35.419Z,30.30
2018-05-15T10:42:07.408Z,30.60
2018-05-15T10:44:39.362Z,30.90
2018-05-15T10:47:12.205Z,31.40
2018-05-15T10:49:45.263Z,31.60
2018-05-15T10:52:18.308Z,31.60
2018-05-15T10:54:50.550Z,31.80
2018-05-15T10:57:22.772Z,32.10
2018-05-15T10:59:54.982Z,32.30
2018-05-15T11:02:27.020Z,32.60
2018-05-15T11:04:59.055Z,32.80
2018-05-15T11:07:32.109Z,33.30
2018-05-15T11:10:03.728Z,33.30
2018-05-15T11:12:36.591Z,33.90
2018-05-15T11:15:08.645Z,33.80
2018-05-15T11:17:40.631Z,34.20
2018-05-15T11:20:29.365Z,34.60
2018-05-15T11:23:18.781Z,35.20
2018-05-15T11:25:52.523Z,35.40
2018-05-15T11:28:24.486Z,35.30
2018-05-15T11:30:56.946Z,35.50
2018-05-15T11:33:28.939Z,35.70
2018-05-15T11:36:00.899Z,35.90
2018-05-15T11:38:32.787Z,36.00
2018-05-15T11:41:04.760Z,36.00
2018-05-15T11:43:37.355Z,35.90
2018-05-15T11:46:09.290Z,35.90
2018-05-15T11:48:42.678Z,35.90
2018-05-15T11:51:15.186Z,35.90
2018-05-15T11:53:46.302Z,36.00
2018-05-15T11:56:18.331Z,36.00
2018-05-15T11:58:50.342Z,36.10
2018-05-15T12:01:22.307Z,36.20
2018-05-15T12:03:54.512Z,36.30
2018-05-15T12:06:26.706Z,36.50
2018-05-15T12:08:58.878Z,36.50
2018-05-15T12:11:31.089Z,36.70
2018-05-15T12:14:03.542Z,37.00
2018-05-15T12:16:36.963Z,37.20
2018-05-15T12:19:08.926Z,37.20
2018-05-15T12:21:41.670Z,37.60
2018-05-15T12:24:15.167Z,37.70
2018-05-15T12:26:47.150Z,37.80
2018-05-15T12:29:19.182Z,38.00
2018-05-15T12:31:51.232Z,38.20
2018-05-15T12:34:24.130Z,38.60
2018-05-15T12:36:56.937Z,38.70
2018-05-15T12:39:28.949Z,38.70
2018-05-15T12:42:01.757Z,38.70
2018-05-15T12:44:34.851Z,38.50
2018-05-15T12:47:06.826Z,38.50
2018-05-15T12:49:39.595Z,38.30
2018-05-15T12:52:11.555Z,38.30
2018-05-15T12:54:44.381Z,38.30
2018-05-15T12:57:17.572Z,38.30
2018-05-15T12:59:50.311Z,38.40
2018-05-15T13:02:22.290Z,38.40
2018-05-15T13:04:54.434Z,38.50
2018-05-15T13:07:28.164Z,38.60
2018-05-15T13:10:01.368Z,38.90
2018-05-15T13:12:33.975Z,38.90
2018-05-15T13:15:06.766Z,39.00
2018-05-15T13:17:38.706Z,38.90
2018-05-15T13:20:11.509Z,38.80
2018-05-15T13:22:44.298Z,38.70
2018-05-15T13:25:15.879Z,38.70
2018-05-15T13:27:47.845Z,38.50
2018-05-15T13:30:20.712Z,38.10
2018-05-15T13:32:52.924Z,38.10
2018-05-15T13:35:24.961Z,37.70
2018-05-15T13:37:57.057Z,37.30
2018-05-15T13:40:29.884Z,36.40
2018-05-15T13:43:03.005Z,36.00
2018-05-15T13:45:34.969Z,36.00
2018-05-15T13:48:07.108Z,35.70
2018-05-15T13:50:39.125Z,35.30
2018-05-15T13:53:11.275Z,35.00
2018-05-15T13:55:43.555Z,34.60
2018-05-15T13:58:15.496Z,34.30
2018-05-15T14:00:47.642Z,34.00
2018-05-15T14:03:20.632Z,33.50
2018-05-15T14:05:52.876Z,33.40
2018-05-15T14:08:24.887Z,33.20
2018-05-15T14:10:56.877Z,32.90
2018-05-15T14:13:28.839Z,32.70
2018-05-15T14:16:00.995Z,32.50
2018-05-15T14:18:33.254Z,32.30
2018-05-15T14:21:04.890Z,32.00
2018-05-15T14:23:40.478Z,31.60
2018-05-15T14:26:12.425Z,31.50
2018-05-15T14:28:44.453Z,31.40
2018-05-15T14:31:16.890Z,31.10
2018-05-15T14:33:48.936Z,31.00
2018-05-15T14:36:20.891Z,30.90
2018-05-15T14:38:53.122Z,30.60
2018-05-15T14:41:41.834Z,30.70
2018-05-15T14:44:13.329Z,30.50
2018-05-15T14:46:45.001Z,30.40
2018-05-15T14:49:16.404Z,30.30
2018-05-15T14:51:48.246Z,30.10
2018-05-15T14:54:19.627Z,30.00
2018-05-15T14:56:51.011Z,29.90
2018-05-15T14:59:22.408Z,29.80
2018-05-15T15:01:54.518Z,29.60
2018-05-15T15:04:25.940Z,29.60
2018-05-15T15:06:58.239Z,29.40
2018-05-15T15:09:29.606Z,29.40
2018-05-15T15:12:00.991Z,29.30
2018-05-15T15:14:33.184Z,29.20
2018-05-15T15:17:04.623Z,29.20
2018-05-15T15:19:36.414Z,29.30
2018-05-15T15:22:08.171Z,29.40
2018-05-15T15:24:40.083Z,29.70
2018-05-15T15:27:13.231Z,30.20
2018-05-15T15:29:45.237Z,30.10
2018-05-15T15:32:17.173Z,30.40
2018-05-15T15:34:49.381Z,30.70
2018-05-15T15:37:21.361Z,30.80
2018-05-15T15:39:53.359Z,30.90
2018-05-15T15:42:25.572Z,30.90
2018-05-15T15:44:58.755Z,30.80
2018-05-15T15:47:30.853Z,30.80
2018-05-15T15:50:03.166Z,30.60
2018-05-15T15:52:35.962Z,30.50
2018-05-15T15:55:07.367Z,30.50
2018-05-15T15:57:38.736Z,30.30
2018-05-15T16:00:10.164Z,30.10
2018-05-15T16:02:42.323Z,29.80
2018-05-15T16:05:14.486Z,29.70
2018-05-15T16:07:45.964Z,29.60
2018-05-15T16:10:17.397Z,29.60
2018-05-15T16:12:49.522Z,29.40
2018-05-15T16:15:20.915Z,29.30
2018-05-15T16:17:53.199Z,29.10
2018-05-15T16:20:25.411Z,29.00
2018-05-15T16:22:56.959Z,29.00
2018-05-15T16:25:28.380Z,29.00
2018-05-15T16:27:59.827Z,28.90
2018-05-15T16:30:31.264Z,28.80
2018-05-15T16:33:03.465Z,28.70
2018-05-15T16:35:35.621Z,28.60
2018-05-15T16:38:06.992Z,28.60
2018-05-15T16:40:38.535Z,28.60
2018-05-15T16:43:10.673Z,28.50
2018-05-15T16:45:42.851Z,28.50
2018-05-15T16:48:15.028Z,28.50
2018-05-15T16:50:46.660Z,28.40
2018-05-15T16:53:19.075Z,28.40
2018-05-15T16:55:50.687Z,28.30
2018-05-15T16:58:22.100Z,28.30
2018-05-15T17:00:53.909Z,28.20
2018-05-15T17:03:26.170Z,28.00
2018-05-15T17:05:57.571Z,28.00
2018-05-15T17:08:28.934Z,28.00
2018-05-15T17:11:00.402Z,27.90
2018-05-15T17:13:32.248Z,27.80
2018-05-15T17:16:03.783Z,27.80
2018-05-15T17:18:35.224Z,27.70
2018-05-15T17:21:07.651Z,27.50
2018-05-15T17:23:39.203Z,27.50
2018-05-15T17:26:10.616Z,27.50
2018-05-15T17:28:42.150Z,27.40
2018-05-15T17:31:13.654Z,27.30
2018-05-15T17:33:45.375Z,27.30
2018-05-15T17:36:17.566Z,27.10
2018-05-15T17:38:48.968Z,27.10
2018-05-15T17:41:21.056Z,27.10
2018-05-15T17:43:52.466Z,27.00
2018-05-15T17:46:23.840Z,27.00
2018-05-15T17:48:55.335Z,26.90
2018-05-15T17:51:27.035Z,26.90
2018-05-15T17:53:58.404Z,26.90
2018-05-15T17:56:30.564Z,26.80
2018-05-15T17:59:01.973Z,26.80
2018-05-15T18:01:33.842Z,26.80
2018-05-15T18:04:05.276Z,26.80
2018-05-15T18:06:36.937Z,26.70
2018-05-15T18:09:08.397Z,26.70
2018-05-15T18:11:39.779Z,26.70
2018-05-15T18:14:11.191Z,26.70
2018-05-15T18:16:42.623Z,26.60
2018-05-15T18:19:13.995Z,26.60
2018-05-15T18:21:45.457Z,26.60
2018-05-15T18:24:17.355Z,26.50
2018-05-15T18:26:48.954Z,26.50
2018-05-15T18:29:20.365Z,26.50
2018-05-15T18:31:52.642Z,26.40
2018-05-15T18:34:24.000Z,26.30
2018-05-15T18:36:56.214Z,26.30
2018-05-15T18:39:27.950Z,26.30
2018-05-15T18:41:59.400Z,26.30
2018-05-15T18:44:30.838Z,26.30
2018-05-15T18:47:02.518Z,26.30
2018-05-15T18:49:34.295Z,26.20
2018-05-15T18:52:05.758Z,26.20
2018-05-15T18:54:37.217Z,26.10
2018-05-15T18:57:08.596Z,26.10
2018-05-15T18:59:40.730Z,26.00
2018-05-15T19:02:12.151Z,26.00
2018-05-15T19:04:43.574Z,26.00
2018-05-15T19:07:15.145Z,25.90
2018-05-15T19:09:47.246Z,25.90
2018-05-15T19:12:18.859Z,25.80
2018-05-15T19:14:50.261Z,25.80
2018-05-15T19:17:21.693Z,25.80
2018-05-15T19:19:53.251Z,25.70
2018-05-15T19:22:27.127Z,25.60
2018-05-15T19:24:59.500Z,25.60
2018-05-15T19:27:31.212Z,25.50
2018-05-15T19:30:02.616Z,25.50
2018-05-15T19:32:39.087Z,25.40
2018-05-15T19:35:10.497Z,25.30
2018-05-15T19:37:42.724Z,25.30
2018-05-15T19:40:13.939Z,25.20
2018-05-15T19:42:46.149Z,25.10
2018-05-15T19:45:17.487Z,25.10
2018-05-15T19:47:49.065Z,25.10
2018-05-15T19:50:20.920Z,25.00
2018-05-15T19:52:54.540Z,24.80
2018-05-15T19:55:25.968Z,24.80
2018-05-15T19:57:58.395Z,24.80
2018-05-15T20:00:29.756Z,24.80
2018-05-15T20:03:01.965Z,24.60
2018-05-15T20:05:33.371Z,24.60
2018-05-15T20:08:04.836Z,24.50
2018-05-15T20:10:36.232Z,24.50
2018-05-15T20:13:07.692Z,24.40
2018-05-15T20:15:39.107Z,24.30
2018-05-15T20:18:10.598Z,24.30
2018-05-15T20:20:42.081Z,24.20
2018-05-15T20:23:14.283Z,24.10
2018-05-15T20:25:46.625Z,24.00
2018-05-15T20:28:18.051Z,24.00
2018-05-15T20:30:49.707Z,23.90
2018-05-15T20:33:21.940Z,23.90
2018-05-15T20:35:53.362Z,23.80
2018-05-15T20:38:24.724Z,23.80
2018-05-15T20:40:57.903Z,23.70
2018-05-15T20:43:30.554Z,23.70
2018-05-15T20:46:02.103Z,23.60
2018-05-15T20:48:35.276Z,23.50
2018-05-15T20:51:06.822Z,23.50
2018-05-15T20:53:38.372Z,23.50
2018-05-15T20:56:09.730Z,23.50
2018-05-15T20:58:41.185Z,23.40
2018-05-15T21:01:12.694Z,23.40
2018-05-15T21:03:44.861Z,23.30
2018-05-15T21:06:18.062Z,23.20
2018-05-15T21:08:49.505Z,23.20
2018-05-15T21:11:21.657Z,23.20
2018-05-15T21:13:53.053Z,23.20
2018-05-15T21:16:24.453Z,23.20
2018-05-15T21:18:55.859Z,23.20
2018-05-15T21:21:27.262Z,23.10
2018-05-15T21:23:58.659Z,23.10
2018-05-15T21:26:31.079Z,23.10
2018-05-15T21:29:02.515Z,23.00
2018-05-15T21:31:33.931Z,23.00
2018-05-15T21:34:05.609Z,23.00
2018-05-15T21:36:37.176Z,23.00
2018-05-15T21:39:08.584Z,23.00
2018-05-15T21:41:40.152Z,22.90
2018-05-15T21:44:11.552Z,22.90
2018-05-15T21:46:42.930Z,22.90
2018-05-15T21:49:14.415Z,22.90
2018-05-15T21:51:46.783Z,22.80
2018-05-15T21:54:18.341Z,22.80
2018-05-15T21:56:49.774Z,22.80
2018-05-15T21:59:21.149Z,22.80
2018-05-15T22:01:52.562Z,22.80
2018-05-15T22:04:25.597Z,22.70
2018-05-15T22:06:56.996Z,22.70
2018-05-15T22:09:29.131Z,22.70
2018-05-15T22:12:17.434Z,22.60
2018-05-15T22:15:11.442Z,22.60
2018-05-15T22:18:05.545Z,22.60
2018-05-15T22:20:59.341Z,22.50
2018-05-15T22:23:34.755Z,22.50
2018-05-15T22:26:05.823Z,22.40
2018-05-15T22:28:37.243Z,22.40
2018-05-15T22:31:08.635Z,22.40
2018-05-15T22:33:39.675Z,22.30
2018-05-15T22:36:11.049Z,22.30
2018-05-15T22:38:42.433Z,22.30
2018-05-15T22:41:13.833Z,22.20
2018-05-15T22:43:45.986Z,22.20
2018-05-15T22:46:17.409Z,22.20
2018-05-15T22:48:48.805Z,22.10
2018-05-15T22:51:20.963Z,22.10
2018-05-15T22:53:53.119Z,22.10
2018-05-15T22:56:24.630Z,22.10
2018-05-15T22:58:57.656Z,22.00
2018-05-15T23:01:29.333Z,22.00
2018-05-15T23:04:00.737Z,22.00
2018-05-15T23:06:32.147Z,22.00
2018-05-15T23:09:03.579Z,21.90
2018-05-15T23:11:34.953Z,21.90
2018-05-15T23:14:06.368Z,21.90
2018-05-15T23:16:37.773Z,21.90
2018-05-15T23:19:09.181Z,21.90
2018-05-15T23:21:40.618Z,21.90
2018-05-15T23:24:12.299Z,21.90
2018-05-15T23:26:43.700Z,21.90
2018-05-15T23:29:15.058Z,21.90
2018-05-15T23:31:46.491Z,22.00
2018-05-15T23:34:17.963Z,22.00
2018-05-15T23:36:50.438Z,22.00
2018-05-15T23:39:21.842Z,22.00
2018-05-15T23:41:53.997Z,22.00
2018-05-15T23:44:25.536Z,21.90
2018-05-15T23:46:57.139Z,21.90
2018-05-15T23:49:28.725Z,21.90
2018-05-15T23:52:00.150Z,21.90
2018-05-15T23:54:31.542Z,21.90
2018-05-15T23:57:02.980Z,21.70
2018-05-15T23:59:34.029Z,21.80
